createdAt,value
2018-07-09T19:24:11.174Z,39.30
2018-07-09T19:31:32.583Z,60.40
2018-07-09T19:36:35.303Z,38.80
2018-07-09T19:46:41.704Z,40.80
2018-07-09T19:51:44.338Z,38.20
2018-07-09T19:56:47.068Z,39.30
2018-07-09T21:13:07.393Z,44.90
2018-07-09T21:18:09.525Z,47.80
2018-07-09T21:24:37.490Z,55.80
2018-07-09T21:25:09.753Z,54.10
2018-07-09T21:30:47.312Z,50.60
2018-07-09T21:31:19.829Z,52.00
2018-07-09T21:31:52.188Z,52.00
2018-07-09T21:40:53.725Z,52.80
2018-07-09T21:43:26.240Z,53.60
2018-07-09T21:45:58.696Z,54.10
2018-07-09T21:48:31.474Z,54.10
2018-07-09T21:51:03.856Z,54.20
2018-07-09T21:53:36.300Z,54.80
2018-07-09T21:56:08.664Z,54.50
2018-07-09T21:58:41.038Z,55.20
2018-07-09T22:01:13.493Z,55.80
2018-07-09T22:03:45.823Z,56.00
2018-07-09T22:06:18.228Z,55.60
2018-07-09T22:08:50.735Z,55.70
2018-07-09T22:11:23.117Z,56.10
2018-07-09T22:13:55.477Z,55.80
2018-07-09T22:16:28.084Z,57.50
2018-07-09T22:19:00.406Z,57.20
2018-07-09T22:21:32.787Z,57.40
2018-07-09T22:24:05.135Z,57.40
2018-07-09T22:26:37.468Z,57.70
2018-07-09T22:29:09.766Z,57.40
2018-07-09T22:31:43.248Z,56.80
2018-07-09T22:34:16.796Z,57.20
2018-07-09T22:36:50.257Z,56.60
2018-07-09T22:39:23.761Z,56.40
2018-07-09T22:41:57.260Z,55.60
2018-07-09T22:44:30.755Z,55.50
2018-07-09T22:47:04.293Z,55.70
2018-07-09T22:49:37.754Z,56.00
2018-07-09T22:52:11.277Z,56.00
2018-07-09T22:54:44.791Z,56.00
2018-07-09T22:57:18.311Z,56.50
2018-07-09T22:59:51.764Z,56.70
2018-07-09T23:02:25.310Z,55.80
2018-07-09T23:04:58.862Z,56.00
2018-07-09T23:07:35.697Z,57.50
2018-07-09T23:12:25.486Z,57.00
2018-07-09T23:17:16.352Z,56.80
2018-07-09T23:22:02.909Z,56.80
2018-07-09T23:24:35.245Z,56.00
2018-07-09T23:27:07.568Z,56.70
2018-07-09T23:29:39.930Z,57.80
2018-07-09T23:32:12.216Z,58.30
2018-07-09T23:34:44.547Z,58.80
2018-07-09T23:37:16.855Z,58.90
2018-07-09T23:42:21.797Z,59.00
2018-07-09T23:44:54.097Z,58.90
2018-07-09T23:47:26.472Z,59.50
2018-07-09T23:49:58.855Z,60.10
2018-07-09T23:52:31.259Z,61.40
2018-07-09T23:55:03.634Z,62.20
2018-07-09T23:58:23.042Z,62.40
